sensor_id;sensor_type;location;lat;lon;timestamp;pressure;altitude;pressure_sealevel;temperature;humidity
45525;BME280;31437;58.350;13.828;2023-04-03T00:01:11;102877.31;;;-5.02;100.00
45525;BME280;31437;58.350;13.828;2023-04-03T00:03:36;102895.16;;;-5.04;100.00
45525;BME280;31437;58.350;13.828;2023-04-03T00:06:02;102923.09;;;-5.08;100.00
45525;BME280;31437;58.350;13.828;2023-04-03T00:08:27;102936.50;;;-5.12;100.00
45525;BME280;31437;58.350;13.828;2023-04-03T00:10:55;102956.09;;;-5.13;100.00
45525;BME280;31437;58.350;13.828;2023-04-03T00:13:20;102977.38;;;-5.14;100.00
45525;BME280;31437;58.350;13.828;2023-04-03T00:15:46;102992.47;;;-5.18;100.00
45525;BME280;31437;58.350;13.828;2023-04-03T00:18:11;102997.44;;;-5.21;100.00
45525;BME280;31437;58.350;13.828;2023-04-03T00:20:36;103015.00;;;-5.28;100.00
45525;BME280;31437;58.350;13.828;2023-04-03T00:23:02;103017.06;;;-5.37;100.00
45525;BME280;31437;58.350;13.828;2023-04-03T00:25:27;103031.19;;;-5.43;100.00
45525;BME280;31437;58.350;13.828;2023-04-03T00:27:53;103041.16;;;-5.48;100.00
45525;BME280;31437;58.350;13.828;2023-04-03T00:30:19;103050.41;;;-5.50;100.00
45525;BME280;31437;58.350;13.828;2023-04-03T00:32:47;103064.81;;;-5.52;100.00
45525;BME280;31437;58.350;13.828;2023-04-03T00:35:12;103081.91;;;-5.51;100.00
45525;BME280;31437;58.350;13.828;2023-04-03T00:37:40;103088.59;;;-5.53;100.00
45525;BME280;31437;58.350;13.828;2023-04-03T00:40:06;103093.47;;;-5.58;100.00
45525;BME280;31437;58.350;13.828;2023-04-03T00:42:31;103105.03;;;-5.64;100.00
45525;BME280;31437;58.350;13.828;2023-04-03T00:47:22;103128.28;;;-5.75;100.00
45525;BME280;31437;58.350;13.828;2023-04-03T00:49:48;103142.56;;;-5.78;100.00
45525;BME280;31437;58.350;13.828;2023-04-03T00:52:15;103159.59;;;-5.79;100.00
45525;BME280;31437;58.350;13.828;2023-04-03T00:54:41;103161.28;;;-5.79;100.00
45525;BME280;31437;58.350;13.828;2023-04-03T00:57:07;103173.06;;;-5.81;100.00
45525;BME280;31437;58.350;13.828;2023-04-03T00:59:34;103196.59;;;-5.87;100.00
45525;BME280;31437;58.350;13.828;2023-04-03T01:02:01;103203.28;;;-5.89;100.00
45525;BME280;31437;58.350;13.828;2023-04-03T01:06:52;103218.72;;;-5.87;100.00
45525;BME280;31437;58.350;13.828;2023-04-03T01:09:17;103217.94;;;-5.86;100.00
45525;BME280;31437;58.350;13.828;2023-04-03T01:11:42;103225.59;;;-5.86;100.00
45525;BME280;31437;58.350;13.828;2023-04-03T01:14:07;103222.78;;;-5.91;100.00
45525;BME280;31437;58.350;13.828;2023-04-03T01:16:33;103225.88;;;-5.97;100.00
45525;BME280;31437;58.350;13.828;2023-04-03T01:18:58;103232.56;;;-5.99;100.00
45525;BME280;31437;58.350;13.828;2023-04-03T01:21:36;103241.09;;;-5.98;100.00
45525;BME280;31437;58.350;13.828;2023-04-03T01:26:38;103253.53;;;-5.89;100.00
45525;BME280;31437;58.350;13.828;2023-04-03T01:29:03;103250.91;;;-5.91;100.00
45525;BME280;31437;58.350;13.828;2023-04-03T01:34:00;103244.53;;;-5.98;100.00
45525;BME280;31437;58.350;13.828;2023-04-03T01:36:27;103251.44;;;-5.97;100.00
45525;BME280;31437;58.350;13.828;2023-04-03T01:38:53;103252.50;;;-5.93;100.00
45525;BME280;31437;58.350;13.828;2023-04-03T01:41:19;103258.66;;;-5.89;100.00
45525;BME280;31437;58.350;13.828;2023-04-03T01:43:45;103255.72;;;-5.82;100.00
45525;BME280;31437;58.350;13.828;2023-04-03T01:46:11;103258.44;;;-5.79;100.00
45525;BME280;31437;58.350;13.828;2023-04-03T01:48:36;103260.09;;;-5.80;100.00
45525;BME280;31437;58.350;13.828;2023-04-03T01:51:02;103251.66;;;-5.79;100.00
45525;BME280;31437;58.350;13.828;2023-04-03T01:53:27;103258.63;;;-5.76;100.00
45525;BME280;31437;58.350;13.828;2023-04-03T01:55:52;103251.22;;;-5.72;100.00
45525;BME280;31437;58.350;13.828;2023-04-03T01:58:18;103244.44;;;-5.71;100.00
45525;BME280;31437;58.350;13.828;2023-04-03T02:00:43;103241.63;;;-5.76;100.00
45525;BME280;31437;58.350;13.828;2023-04-03T02:03:08;103239.94;;;-5.75;100.00
45525;BME280;31437;58.350;13.828;2023-04-03T02:05:33;103233.06;;;-5.76;100.00
45525;BME280;31437;58.350;13.828;2023-04-03T02:07:59;103226.97;;;-5.78;100.00
45525;BME280;31437;58.350;13.828;2023-04-03T02:10:24;103229.34;;;-5.81;100.00
45525;BME280;31437;58.350;13.828;2023-04-03T02:12:50;103229.91;;;-5.85;100.00
45525;BME280;31437;58.350;13.828;2023-04-03T02:15:16;103227.09;;;-5.90;100.00
45525;BME280;31437;58.350;13.828;2023-04-03T02:17:41;103235.41;;;-5.94;100.00
45525;BME280;31437;58.350;13.828;2023-04-03T02:20:06;103239.41;;;-5.98;100.00
45525;BME280;31437;58.350;13.828;2023-04-03T02:22:32;103236.19;;;-5.95;100.00
45525;BME280;31437;58.350;13.828;2023-04-03T02:24:57;103225.19;;;-5.94;100.00
45525;BME280;31437;58.350;13.828;2023-04-03T02:27:22;103226.75;;;-5.96;100.00
45525;BME280;31437;58.350;13.828;2023-04-03T02:29:48;103212.19;;;-5.97;100.00
45525;BME280;31437;58.350;13.828;2023-04-03T02:32:13;103213.97;;;-5.96;100.00
45525;BME280;31437;58.350;13.828;2023-04-03T02:34:38;103204.72;;;-5.94;100.00
45525;BME280;31437;58.350;13.828;2023-04-03T02:37:03;103196.25;;;-5.93;100.00
45525;BME280;31437;58.350;13.828;2023-04-03T02:39:29;103196.94;;;-5.96;100.00
45525;BME280;31437;58.350;13.828;2023-04-03T02:41:54;103179.16;;;-5.94;100.00
45525;BME280;31437;58.350;13.828;2023-04-03T02:44:19;103172.41;;;-5.92;100.00
45525;BME280;31437;58.350;13.828;2023-04-03T02:46:45;103156.75;;;-5.98;100.00
45525;BME280;31437;58.350;13.828;2023-04-03T02:49:10;103151.44;;;-6.01;100.00
45525;BME280;31437;58.350;13.828;2023-04-03T02:51:35;103141.03;;;-6.04;100.00
45525;BME280;31437;58.350;13.828;2023-04-03T02:54:01;103138.41;;;-6.06;100.00
45525;BME280;31437;58.350;13.828;2023-04-03T02:56:26;103128.06;;;-6.07;100.00
45525;BME280;31437;58.350;13.828;2023-04-03T02:58:52;103124.34;;;-6.12;100.00
45525;BME280;31437;58.350;13.828;2023-04-03T03:01:17;103112.97;;;-6.18;100.00
45525;BME280;31437;58.350;13.828;2023-04-03T03:03:42;103117.00;;;-6.21;100.00
45525;BME280;31437;58.350;13.828;2023-04-03T03:06:12;103118.41;;;-6.26;100.00
45525;BME280;31437;58.350;13.828;2023-04-03T03:08:37;103127.53;;;-6.30;100.00
45525;BME280;31437;58.350;13.828;2023-04-03T03:11:03;103119.97;;;-6.28;100.00
45525;BME280;31437;58.350;13.828;2023-04-03T03:13:28;103113.88;;;-6.30;100.00
45525;BME280;31437;58.350;13.828;2023-04-03T03:15:54;103114.69;;;-6.31;100.00
45525;BME280;31437;58.350;13.828;2023-04-03T03:18:20;103112.22;;;-6.30;100.00
45525;BME280;31437;58.350;13.828;2023-04-03T03:20:46;103105.03;;;-6.35;100.00
45525;BME280;31437;58.350;13.828;2023-04-03T03:23:11;103106.31;;;-6.29;100.00
45525;BME280;31437;58.350;13.828;2023-04-03T03:25:39;103089.81;;;-6.34;100.00
45525;BME280;31437;58.350;13.828;2023-04-03T03:28:05;103091.22;;;-6.39;100.00
45525;BME280;31437;58.350;13.828;2023-04-03T03:30:30;103093.56;;;-6.42;100.00
45525;BME280;31437;58.350;13.828;2023-04-03T03:32:56;103091.22;;;-6.39;100.00
45525;BME280;31437;58.350;13.828;2023-04-03T03:35:21;103076.75;;;-6.38;100.00
45525;BME280;31437;58.350;13.828;2023-04-03T03:37:46;103075.81;;;-6.41;100.00
45525;BME280;31437;58.350;13.828;2023-04-03T03:40:11;103059.84;;;-6.36;100.00
45525;BME280;31437;58.350;13.828;2023-04-03T03:42:38;103050.81;;;-6.31;100.00
45525;BME280;31437;58.350;13.828;2023-04-03T03:45:03;103045.59;;;-6.33;100.00
45525;BME280;31437;58.350;13.828;2023-04-03T03:47:28;103038.63;;;-6.35;100.00
45525;BME280;31437;58.350;13.828;2023-04-03T03:49:54;103027.34;;;-6.39;100.00
45525;BME280;31437;58.350;13.828;2023-04-03T03:52:19;103021.88;;;-6.45;100.00
45525;BME280;31437;58.350;13.828;2023-04-03T03:54:45;103026.59;;;-6.51;100.00
45525;BME280;31437;58.350;13.828;2023-04-03T03:57:10;103025.44;;;-6.56;100.00
45525;BME280;31437;58.350;13.828;2023-04-03T03:59:35;103027.22;;;-6.55;100.00
45525;BME280;31437;58.350;13.828;2023-04-03T04:02:01;103032.16;;;-6.58;100.00
45525;BME280;31437;58.350;13.828;2023-04-03T04:04:26;103038.44;;;-6.67;100.00
45525;BME280;31437;58.350;13.828;2023-04-03T04:06:51;103041.56;;;-6.71;100.00
45525;BME280;31437;58.350;13.828;2023-04-03T04:09:16;103048.28;;;-6.73;100.00
45525;BME280;31437;58.350;13.828;2023-04-03T04:11:42;103064.56;;;-6.71;100.00
45525;BME280;31437;58.350;13.828;2023-04-03T04:14:07;103067.31;;;-6.68;100.00
45525;BME280;31437;58.350;13.828;2023-04-03T04:16:32;103070.84;;;-6.66;100.00
45525;BME280;31437;58.350;13.828;2023-04-03T04:18:58;103070.56;;;-6.70;100.00
45525;BME280;31437;58.350;13.828;2023-04-03T04:21:23;103077.75;;;-6.78;100.00
45525;BME280;31437;58.350;13.828;2023-04-03T04:23:48;103085.28;;;-6.79;100.00
45525;BME280;31437;58.350;13.828;2023-04-03T04:26:13;103091.69;;;-6.86;100.00
45525;BME280;31437;58.350;13.828;2023-04-03T04:28:39;103094.47;;;-6.96;100.00
45525;BME280;31437;58.350;13.828;2023-04-03T04:31:04;103095.63;;;-7.04;100.00
45525;BME280;31437;58.350;13.828;2023-04-03T04:33:29;103110.75;;;-7.07;100.00
45525;BME280;31437;58.350;13.828;2023-04-03T04:35:55;103126.84;;;-7.09;100.00
45525;BME280;31437;58.350;13.828;2023-04-03T04:38:20;103140.78;;;-7.03;100.00
45525;BME280;31437;58.350;13.828;2023-04-03T04:40:46;103152.97;;;-6.99;100.00
45525;BME280;31437;58.350;13.828;2023-04-03T04:43:12;103156.47;;;-6.97;100.00
45525;BME280;31437;58.350;13.828;2023-04-03T04:45:39;103161.97;;;-6.91;100.00
45525;BME280;31437;58.350;13.828;2023-04-03T04:48:05;103173.19;;;-6.76;100.00
45525;BME280;31437;58.350;13.828;2023-04-03T04:50:30;103177.81;;;-6.44;100.00
45525;BME280;31437;58.350;13.828;2023-04-03T04:52:55;103174.06;;;-6.07;100.00
45525;BME280;31437;58.350;13.828;2023-04-03T04:55:21;103150.78;;;-5.69;100.00
45525;BME280;31437;58.350;13.828;2023-04-03T04:57:46;103128.25;;;-5.32;100.00
45525;BME280;31437;58.350;13.828;2023-04-03T05:00:11;103096.97;;;-4.96;100.00
45525;BME280;31437;58.350;13.828;2023-04-03T05:02:37;103064.13;;;-4.72;100.00
45525;BME280;31437;58.350;13.828;2023-04-03T05:05:02;103035.31;;;-4.36;100.00
45525;BME280;31437;58.350;13.828;2023-04-03T05:07:28;102995.34;;;-3.99;100.00
45525;BME280;31437;58.350;13.828;2023-04-03T05:09:54;102951.97;;;-3.77;100.00
45525;BME280;31437;58.350;13.828;2023-04-03T05:12:19;102903.97;;;-3.24;100.00
45525;BME280;31437;58.350;13.828;2023-04-03T05:14:44;102833.75;;;-2.86;100.00
45525;BME280;31437;58.350;13.828;2023-04-03T05:17:10;102705.69;;;-2.56;100.00
45525;BME280;31437;58.350;13.828;2023-04-03T05:19:35;102555.91;;;-2.28;100.00
45525;BME280;31437;58.350;13.828;2023-04-03T05:22:00;102407.34;;;-1.85;100.00
45525;BME280;31437;58.350;13.828;2023-04-03T05:24:26;102285.56;;;-1.55;100.00
45525;BME280;31437;58.350;13.828;2023-04-03T05:26:51;102176.13;;;-1.41;100.00
45525;BME280;31437;58.350;13.828;2023-04-03T05:29:16;102097.06;;;-1.09;100.00
45525;BME280;31437;58.350;13.828;2023-04-03T05:31:42;102042.03;;;-0.75;100.00
45525;BME280;31437;58.350;13.828;2023-04-03T05:34:08;101992.56;;;-0.58;100.00
45525;BME280;31437;58.350;13.828;2023-04-03T05:36:34;101953.50;;;-0.77;100.00
45525;BME280;31437;58.350;13.828;2023-04-03T05:39:00;101940.22;;;-0.54;100.00
45525;BME280;31437;58.350;13.828;2023-04-03T05:41:25;101926.75;;;-0.41;100.00
45525;BME280;31437;58.350;13.828;2023-04-03T05:43:50;101919.88;;;-0.39;100.00
45525;BME280;31437;58.350;13.828;2023-04-03T05:46:17;101900.09;;;-0.40;100.00
45525;BME280;31437;58.350;13.828;2023-04-03T05:48:43;101894.06;;;-0.40;100.00
45525;BME280;31437;58.350;13.828;2023-04-03T05:51:13;101887.09;;;-0.44;100.00
45525;BME280;31437;58.350;13.828;2023-04-03T05:53:39;101881.50;;;-0.22;100.00
45525;BME280;31437;58.350;13.828;2023-04-03T05:56:05;101881.13;;;0.08;100.00
45525;BME280;31437;58.350;13.828;2023-04-03T05:58:30;101862.69;;;0.40;100.00
45525;BME280;31437;58.350;13.828;2023-04-03T06:00:55;101856.03;;;0.59;100.00
45525;BME280;31437;58.350;13.828;2023-04-03T06:03:21;101858.09;;;0.83;100.00
45525;BME280;31437;58.350;13.828;2023-04-03T06:05:47;101858.22;;;0.92;100.00
45525;BME280;31437;58.350;13.828;2023-04-03T06:08:12;101856.81;;;1.22;100.00
45525;BME280;31437;58.350;13.828;2023-04-03T06:10:39;101850.72;;;1.17;100.00
45525;BME280;31437;58.350;13.828;2023-04-03T06:13:04;101859.69;;;1.49;100.00
45525;BME280;31437;58.350;13.828;2023-04-03T06:15:31;101850.50;;;1.84;100.00
45525;BME280;31437;58.350;13.828;2023-04-03T06:17:56;101855.03;;;2.09;100.00
45525;BME280;31437;58.350;13.828;2023-04-03T06:20:21;101850.03;;;2.40;100.00
45525;BME280;31437;58.350;13.828;2023-04-03T06:22:48;101849.22;;;2.45;100.00
45525;BME280;31437;58.350;13.828;2023-04-03T06:25:14;101848.38;;;2.53;100.00
45525;BME280;31437;58.350;13.828;2023-04-03T06:27:39;101851.13;;;2.77;100.00
45525;BME280;31437;58.350;13.828;2023-04-03T06:30:07;101846.91;;;3.13;100.00
45525;BME280;31437;58.350;13.828;2023-04-03T06:32:33;101844.38;;;3.40;100.00
45525;BME280;31437;58.350;13.828;2023-04-03T06:34:58;101846.97;;;3.56;100.00
45525;BME280;31437;58.350;13.828;2023-04-03T06:37:25;101840.94;;;3.94;100.00
45525;BME280;31437;58.350;13.828;2023-04-03T06:39:51;101843.53;;;4.10;100.00
45525;BME280;31437;58.350;13.828;2023-04-03T06:42:16;101841.81;;;4.13;100.00
45525;BME280;31437;58.350;13.828;2023-04-03T06:44:42;101839.22;;;4.02;100.00
45525;BME280;31437;58.350;13.828;2023-04-03T06:47:09;101838.38;;;4.06;100.00
45525;BME280;31437;58.350;13.828;2023-04-03T06:49:34;101844.38;;;4.34;100.00
45525;BME280;31437;58.350;13.828;2023-04-03T06:52:01;101844.41;;;4.14;100.00
45525;BME280;31437;58.350;13.828;2023-04-03T06:54:27;101845.19;;;4.50;100.00
45525;BME280;31437;58.350;13.828;2023-04-03T06:56:52;101843.50;;;4.44;100.00
45525;BME280;31437;58.350;13.828;2023-04-03T06:59:17;101838.25;;;4.63;100.00
45525;BME280;31437;58.350;13.828;2023-04-03T07:01:43;101842.59;;;4.50;100.00
45525;BME280;31437;58.350;13.828;2023-04-03T07:04:08;101842.63;;;4.31;100.00
45525;BME280;31437;58.350;13.828;2023-04-03T07:06:34;101850.47;;;3.99;100.00
45525;BME280;31437;58.350;13.828;2023-04-03T07:09:00;101846.16;;;4.18;100.00
45525;BME280;31437;58.350;13.828;2023-04-03T07:11:25;101842.66;;;4.28;100.00
45525;BME280;31437;58.350;13.828;2023-04-03T07:13:51;101838.31;;;4.32;100.00
45525;BME280;31437;58.350;13.828;2023-04-03T07:16:16;101843.53;;;4.21;100.00
45525;BME280;31437;58.350;13.828;2023-04-03T07:18:42;101846.13;;;4.20;100.00
45525;BME280;31437;58.350;13.828;2023-04-03T07:21:07;101832.28;;;4.10;100.00
45525;BME280;31437;58.350;13.828;2023-04-03T07:23:32;101841.81;;;4.08;100.00
45525;BME280;31437;58.350;13.828;2023-04-03T07:25:59;101840.94;;;4.07;100.00
45525;BME280;31437;58.350;13.828;2023-04-03T07:28:25;101840.06;;;4.02;100.00
45525;BME280;31437;58.350;13.828;2023-04-03T07:30:59;101842.66;;;4.28;100.00
45525;BME280;31437;58.350;13.828;2023-04-03T07:33:25;101838.28;;;4.49;100.00
45525;BME280;31437;58.350;13.828;2023-04-03T07:35:50;101842.50;;;4.79;100.00
45525;BME280;31437;58.350;13.828;2023-04-03T07:38:15;101841.69;;;4.63;100.00
45525;BME280;31437;58.350;13.828;2023-04-03T07:40:45;101839.91;;;4.81;100.00
45525;BME280;31437;58.350;13.828;2023-04-03T07:43:10;101843.31;;;4.90;100.00
45525;BME280;31437;58.350;13.828;2023-04-03T07:45:35;101835.56;;;4.78;100.00
45525;BME280;31437;58.350;13.828;2023-04-03T07:48:01;101841.66;;;4.80;100.00
45525;BME280;31437;58.350;13.828;2023-04-03T07:50:26;101844.16;;;4.94;100.00
45525;BME280;31437;58.350;13.828;2023-04-03T07:52:52;101842.47;;;4.82;100.00
45525;BME280;31437;58.350;13.828;2023-04-03T07:55:19;101845.00;;;5.02;100.00
45525;BME280;31437;58.350;13.828;2023-04-03T07:57:45;101849.34;;;4.98;100.00
45525;BME280;31437;58.350;13.828;2023-04-03T08:00:10;101848.47;;;5.03;100.00
45525;BME280;31437;58.350;13.828;2023-04-03T08:02:37;101856.03;;;5.45;100.00
45525;BME280;31437;58.350;13.828;2023-04-03T08:05:02;101856.84;;;5.52;100.00
45525;BME280;31437;58.350;13.828;2023-04-03T08:07:27;101852.03;;;6.14;100.00
45525;BME280;31437;58.350;13.828;2023-04-03T08:09:53;101854.81;;;5.92;100.00
45525;BME280;31437;58.350;13.828;2023-04-03T08:12:18;101854.34;;;5.41;100.00
45525;BME280;31437;58.350;13.828;2023-04-03T08:14:44;101862.28;;;5.15;100.00
45525;BME280;31437;58.350;13.828;2023-04-03T08:17:09;101859.03;;;4.63;100.00
45525;BME280;31437;58.350;13.828;2023-04-03T08:19:39;101866.78;;;4.75;100.00
45525;BME280;31437;58.350;13.828;2023-04-03T08:22:04;101866.00;;;4.44;100.00
45525;BME280;31437;58.350;13.828;2023-04-03T08:24:34;101865.13;;;4.54;100.00
45525;BME280;31437;58.350;13.828;2023-04-03T08:26:59;101864.25;;;4.55;100.00
45525;BME280;31437;58.350;13.828;2023-04-03T08:29:25;101863.44;;;4.36;100.00
45525;BME280;31437;58.350;13.828;2023-04-03T08:31:50;101861.59;;;4.69;100.00
45525;BME280;31437;58.350;13.828;2023-04-03T08:34:16;101863.28;;;4.84;100.00
45525;BME280;31437;58.350;13.828;2023-04-03T08:36:42;101853.78;;;4.76;100.00
45525;BME280;31437;58.350;13.828;2023-04-03T08:39:07;101856.38;;;4.78;100.00
45525;BME280;31437;58.350;13.828;2023-04-03T08:41:33;101852.66;;;5.33;100.00
45525;BME280;31437;58.350;13.828;2023-04-03T08:51:51;101852.06;;;4.72;100.00
45525;BME280;31437;58.350;13.828;2023-04-03T08:54:21;101852.97;;;4.54;100.00
45525;BME280;31437;58.350;13.828;2023-04-03T08:56:49;101849.44;;;4.75;100.00
45525;BME280;31437;58.350;13.828;2023-04-03T08:59:16;101841.47;;;5.15;100.00
45525;BME280;31437;58.350;13.828;2023-04-03T09:01:45;101842.25;;;5.31;100.00
45525;BME280;31437;58.350;13.828;2023-04-03T09:04:14;101843.09;;;5.36;100.00
45525;BME280;31437;58.350;13.828;2023-04-03T09:06:41;101842.94;;;5.59;100.00
45525;BME280;31437;58.350;13.828;2023-04-03T09:11:36;101837.84;;;5.39;100.00
45525;BME280;31437;58.350;13.828;2023-04-03T09:14:13;101838.75;;;5.38;100.00
45525;BME280;31437;58.350;13.828;2023-04-03T09:17:02;101835.38;;;5.21;100.00
45525;BME280;31437;58.350;13.828;2023-04-03T09:22:24;101832.91;;;4.93;100.00
45525;BME280;31437;58.350;13.828;2023-04-03T09:24:55;101828.53;;;5.03;100.00
45525;BME280;31437;58.350;13.828;2023-04-03T09:27:23;101805.88;;;5.20;100.00
45525;BME280;31437;58.350;13.828;2023-04-03T09:29:48;101822.53;;;4.92;100.00
45525;BME280;31437;58.350;13.828;2023-04-03T09:32:28;101833.59;;;5.23;100.00
45525;BME280;31437;58.350;13.828;2023-04-03T09:34:56;101825.78;;;5.31;100.00
45525;BME280;31437;58.350;13.828;2023-04-03T09:37:46;101828.41;;;5.23;100.00
45525;BME280;31437;58.350;13.828;2023-04-03T09:42:51;101817.16;;;5.19;100.00
45525;BME280;31437;58.350;13.828;2023-04-03T09:45:25;101817.16;;;5.21;100.00
45525;BME280;31437;58.350;13.828;2023-04-03T09:48:26;101803.00;;;5.59;100.00
45525;BME280;31437;58.350;13.828;2023-04-03T09:55:56;101791.38;;;6.00;100.00
45525;BME280;31437;58.350;13.828;2023-04-03T09:58:31;101791.31;;;6.07;100.00
45525;BME280;31437;58.350;13.828;2023-04-03T10:00:59;101784.50;;;5.92;100.00
45525;BME280;31437;58.350;13.828;2023-04-03T10:03:35;101791.63;;;5.74;100.00
45525;BME280;31437;58.350;13.828;2023-04-03T10:06:02;101778.44;;;5.87;100.00
45525;BME280;31437;58.350;13.828;2023-04-03T10:08:29;101787.94;;;5.96;100.00
45525;BME280;31437;58.350;13.828;2023-04-03T10:11:06;101788.19;;;5.67;100.00
45525;BME280;31437;58.350;13.828;2023-04-03T10:13:32;101785.66;;;5.59;100.00
45525;BME280;31437;58.350;13.828;2023-04-03T10:16:09;101785.75;;;5.45;100.00
45525;BME280;31437;58.350;13.828;2023-04-03T10:24:14;101782.47;;;5.17;100.00
45525;BME280;31437;58.350;13.828;2023-04-03T10:26:50;101771.94;;;5.37;100.00
45525;BME280;31437;58.350;13.828;2023-04-03T10:31:50;101769.28;;;5.45;100.00
45525;BME280;31437;58.350;13.828;2023-04-03T10:34:23;101771.75;;;5.59;100.00
45525;BME280;31437;58.350;13.828;2023-04-03T10:42:05;101773.81;;;5.17;100.00
45525;BME280;31437;58.350;13.828;2023-04-03T10:52:26;101744.66;;;4.61;100.00
45525;BME280;31437;58.350;13.828;2023-04-03T10:57:20;101743.66;;;4.82;100.00
45525;BME280;31437;58.350;13.828;2023-04-03T10:59:51;101741.19;;;4.64;100.00
45525;BME280;31437;58.350;13.828;2023-04-03T11:02:23;101740.41;;;4.40;100.00
45525;BME280;31437;58.350;13.828;2023-04-03T11:04:54;101744.78;;;4.33;100.00
45525;BME280;31437;58.350;13.828;2023-04-03T11:07:21;101737.03;;;4.21;100.00
45525;BME280;31437;58.350;13.828;2023-04-03T11:09:48;101732.72;;;4.19;100.00
45525;BME280;31437;58.350;13.828;2023-04-03T11:12:23;101734.41;;;4.23;100.00
45525;BME280;31437;58.350;13.828;2023-04-03T11:14:50;101728.41;;;4.05;100.00
45525;BME280;31437;58.350;13.828;2023-04-03T11:19:50;101725.00;;;3.82;100.00
45525;BME280;31437;58.350;13.828;2023-04-03T11:24:46;101721.56;;;3.69;100.00
45525;BME280;31437;58.350;13.828;2023-04-03T11:27:19;101726.78;;;3.51;100.00
45525;BME280;31437;58.350;13.828;2023-04-03T11:29:47;101716.41;;;3.51;100.00
45525;BME280;31437;58.350;13.828;2023-04-03T11:32:29;101712.06;;;3.63;100.00
45525;BME280;31437;58.350;13.828;2023-04-03T11:34:57;101716.38;;;3.58;100.00
45525;BME280;31437;58.350;13.828;2023-04-03T11:39:56;101711.16;;;3.68;100.00
45525;BME280;31437;58.350;13.828;2023-04-03T11:42:38;101702.53;;;3.66;100.00
45525;BME280;31437;58.350;13.828;2023-04-03T11:50:31;101701.69;;;3.71;100.00
45525;BME280;31437;58.350;13.828;2023-04-03T11:52:57;101699.97;;;3.62;100.00
45525;BME280;31437;58.350;13.828;2023-04-03T12:05:48;101686.91;;;3.92;100.00
45525;BME280;31437;58.350;13.828;2023-04-03T12:08:29;101680.00;;;3.89;100.00
45525;BME280;31437;58.350;13.828;2023-04-03T12:13:33;101672.22;;;3.86;100.00
45525;BME280;31437;58.350;13.828;2023-04-03T12:15:58;101676.56;;;3.73;100.00
45525;BME280;31437;58.350;13.828;2023-04-03T12:21:02;101664.47;;;3.74;100.00
45525;BME280;31437;58.350;13.828;2023-04-03T12:23:35;101660.16;;;3.68;100.00
45525;BME280;31437;58.350;13.828;2023-04-03T12:26:24;101656.72;;;3.60;100.00
45525;BME280;31437;58.350;13.828;2023-04-03T12:28:50;101660.16;;;3.63;100.00
45525;BME280;31437;58.350;13.828;2023-04-03T12:31:17;101651.50;;;3.60;100.00
45525;BME280;31437;58.350;13.828;2023-04-03T12:33:48;101647.19;;;3.59;100.00
45525;BME280;31437;58.350;13.828;2023-04-03T12:36:28;101652.38;;;3.53;100.00
45525;BME280;31437;58.350;13.828;2023-04-03T12:42:18;101641.16;;;3.46;100.00
45525;BME280;31437;58.350;13.828;2023-04-03T12:46:45;101639.41;;;3.50;100.00
45525;BME280;31437;58.350;13.828;2023-04-03T12:51:45;101623.03;;;3.38;100.00
45525;BME280;31437;58.350;13.828;2023-04-03T12:54:13;101630.81;;;3.38;100.00
45525;BME280;31437;58.350;13.828;2023-04-03T12:56:40;101627.34;;;3.36;100.00
45525;BME280;31437;58.350;13.828;2023-04-03T13:01:41;101618.69;;;3.34;100.00
45525;BME280;31437;58.350;13.828;2023-04-03T13:04:06;101618.69;;;3.34;100.00
45525;BME280;31437;58.350;13.828;2023-04-03T13:06:34;101623.91;;;3.30;100.00
45525;BME280;31437;58.350;13.828;2023-04-03T13:09:02;101613.50;;;3.36;100.00
45525;BME280;31437;58.350;13.828;2023-04-03T13:11:38;101616.09;;;3.36;100.00
45525;BME280;31437;58.350;13.828;2023-04-03T13:14:14;101603.16;;;3.33;100.00
45525;BME280;31437;58.350;13.828;2023-04-03T13:16:39;101591.88;;;3.29;100.00
45525;BME280;31437;58.350;13.828;2023-04-03T13:19:14;101601.41;;;3.30;100.00
45525;BME280;31437;58.350;13.828;2023-04-03T13:21:41;101596.22;;;3.32;100.00
45525;BME280;31437;58.350;13.828;2023-04-03T13:24:07;101593.59;;;3.35;100.00
45525;BME280;31437;58.350;13.828;2023-04-03T13:26:33;101587.56;;;3.31;100.00
45525;BME280;31437;58.350;13.828;2023-04-03T13:29:03;101587.56;;;3.36;100.00
45525;BME280;31437;58.350;13.828;2023-04-03T13:31:30;101580.63;;;3.41;100.00
45525;BME280;31437;58.350;13.828;2023-04-03T13:36:38;101571.97;;;3.44;100.00
45525;BME280;31437;58.350;13.828;2023-04-03T13:42:02;101575.44;;;3.53;100.00
45525;BME280;31437;58.350;13.828;2023-04-03T13:44:39;101578.00;;;3.58;100.00
45525;BME280;31437;58.350;13.828;2023-04-03T13:51:58;101554.69;;;3.50;100.00
45525;BME280;31437;58.350;13.828;2023-04-03T13:54:24;101554.69;;;3.50;100.00
45525;BME280;31437;58.350;13.828;2023-04-03T13:56:54;101547.75;;;3.51;100.00
45525;BME280;31437;58.350;13.828;2023-04-03T13:59:22;101547.75;;;3.46;100.00
45525;BME280;31437;58.350;13.828;2023-04-03T14:01:53;101540.84;;;3.48;100.00
45525;BME280;31437;58.350;13.828;2023-04-03T14:04:24;101535.63;;;3.51;100.00
45525;BME280;31437;58.350;13.828;2023-04-03T14:06:50;101537.38;;;3.51;100.00
45525;BME280;31437;58.350;13.828;2023-04-03T14:09:17;101538.22;;;3.53;100.00
45525;BME280;31437;58.350;13.828;2023-04-03T14:11:42;101536.50;;;3.53;100.00
45525;BME280;31437;58.350;13.828;2023-04-03T14:14:15;101535.59;;;3.56;100.00
45525;BME280;31437;58.350;13.828;2023-04-03T14:16:42;101531.28;;;3.58;100.00
45525;BME280;31437;58.350;13.828;2023-04-03T14:19:18;101530.41;;;3.57;100.00